Time;durP1;ratioP1;P1;durP2;ratioP2;P2;SDS_P1;SDS_P2;PMS_P1;PMS_P2;Temp;Humidity;BMP_temperature;BMP_pressure;BME280_temperature;BME280_humidity;BME280_pressure;Samples;Min_cycle;Max_cycle;Signal;HPM_P1;HPM_P2
2022/09/11 00:01:34;;;;;;;2.95;1.60;;;13.60;99.90;;;;;;5073231;28;20020;-49
2022/09/11 00:04:01;;;;;;;3.97;1.58;;;13.60;99.90;;;;;;5073456;28;20031;-52
2022/09/11 00:06:27;;;;;;;6.22;1.60;;;13.60;99.90;;;;;;5073161;28;20028;-51
2022/09/11 00:08:59;;;;;;;2.55;2.28;;;13.60;99.90;;;;;;5072965;28;20144;-50
2022/09/11 00:11:27;;;;;;;5.07;1.67;;;13.50;99.90;;;;;;5073163;28;20019;-52
2022/09/11 00:13:53;;;;;;;2.38;1.38;;;13.60;99.90;;;;;;5073118;28;20035;-50
2022/09/11 00:16:20;;;;;;;2.70;1.70;;;13.60;99.90;;;;;;5073157;28;20028;-51
2022/09/11 00:18:46;;;;;;;2.70;1.48;;;13.60;99.90;;;;;;5071981;28;20029;-50
2022/09/11 00:21:12;;;;;;;5.18;1.60;;;13.60;99.90;;;;;;5072928;28;20033;-50
2022/09/11 00:23:37;;;;;;;2.67;1.60;;;13.60;99.90;;;;;;5071544;28;20028;-52
2022/09/11 00:26:03;;;;;;;2.88;2.13;;;13.60;99.90;;;;;;5072809;28;20039;-50
2022/09/11 00:28:29;;;;;;;3.83;1.60;;;13.60;99.90;;;;;;5072547;28;20025;-50
2022/09/11 00:31:00;;;;;;;11.52;2.00;;;13.60;99.90;;;;;;5085199;28;20422;-50
2022/09/11 00:33:27;;;;;;;8.55;2.00;;;13.50;99.90;;;;;;5092939;28;20054;-50
2022/09/11 00:36:06;;;;;;;11.43;2.47;;;13.30;99.90;;;;;;5092974;28;20027;-50
2022/09/11 00:38:35;;;;;;;4.35;2.10;;;13.30;99.90;;;;;;5092837;28;20032;-50
2022/09/11 00:41:03;;;;;;;3.75;2.25;;;13.10;99.90;;;;;;5078436;28;20033;-49
2022/09/11 00:43:48;;;;;;;3.95;1.60;;;13.10;99.90;;;;;;5072231;28;20033;-51
2022/09/11 00:46:15;;;;;;;6.35;2.15;;;13.10;99.90;;;;;;5073789;28;20036;-51
2022/09/11 00:48:41;;;;;;;5.80;2.08;;;13.00;99.90;;;;;;5072879;28;20446;-50
2022/09/11 00:51:07;;;;;;;9.52;1.80;;;13.10;99.90;;;;;;5071604;28;20052;-49
2022/09/11 00:53:35;;;;;;;3.38;1.65;;;13.00;99.90;;;;;;5078220;28;20024;-51
2022/09/11 00:56:04;;;;;;;2.75;2.20;;;13.00;99.90;;;;;;5073451;28;20042;-52
2022/09/11 00:58:34;;;;;;;4.15;2.08;;;13.00;99.90;;;;;;5073293;28;20364;-50
2022/09/11 01:01:01;;;;;;;3.70;2.10;;;13.00;99.90;;;;;;5061115;28;20062;-50
2022/09/11 01:03:27;;;;;;;2.28;1.80;;;13.10;99.90;;;;;;5071920;28;20062;-50
2022/09/11 01:05:53;;;;;;;3.70;2.00;;;13.10;99.90;;;;;;5071985;28;20090;-49
2022/09/11 01:08:20;;;;;;;2.92;1.95;;;13.10;99.90;;;;;;5071863;28;20545;-49
2022/09/11 01:10:48;;;;;;;2.13;1.83;;;13.10;99.90;;;;;;5071828;28;20024;-51
2022/09/11 01:13:59;;;;;;;3.10;1.98;;;13.20;99.90;;;;;;5071693;28;20175;-49
2022/09/11 01:16:24;;;;;;;5.68;1.90;;;13.20;99.90;;;;;;5060583;28;20433;-50
2022/09/11 01:19:12;;;;;;;3.17;2.28;;;13.20;99.90;;;;;;5071534;28;20046;-49
2022/09/11 01:22:04;;;;;;;6.35;2.10;;;13.20;99.90;;;;;;5071455;28;20512;-49
2022/09/11 01:25:14;;;;;;;5.63;1.90;;;13.20;99.90;;;;;;5069549;28;20067;-50
2022/09/11 01:27:44;;;;;;;3.75;2.10;;;13.20;99.90;;;;;;5061780;28;20036;-50
2022/09/11 01:30:17;;;;;;;2.78;2.15;;;13.20;99.90;;;;;;5071571;28;20017;-49
2022/09/11 01:33:10;;;;;;;3.13;2.23;;;13.20;99.90;;;;;;5071648;28;20051;-49
2022/09/11 01:35:57;;;;;;;7.03;2.08;;;13.10;99.90;;;;;;5071510;28;20103;-49
2022/09/11 01:38:34;;;;;;;4.32;2.05;;;13.10;99.90;;;;;;5071358;28;20028;-50
2022/09/11 01:41:08;;;;;;;3.40;2.00;;;13.20;99.90;;;;;;5071613;28;20543;-49
2022/09/11 01:44:09;;;;;;;7.00;2.08;;;13.10;99.90;;;;;;5071475;28;20055;-49
2022/09/11 01:46:41;;;;;;;5.70;1.90;;;13.10;99.90;;;;;;5061660;28;20051;-50
2022/09/11 01:49:18;;;;;;;2.30;2.10;;;13.20;99.90;;;;;;5071432;28;20025;-49
2022/09/11 01:51:46;;;;;;;3.72;1.83;;;13.20;99.90;;;;;;5071437;28;20334;-49
2022/09/11 01:54:24;;;;;;;8.18;2.72;;;13.20;99.90;;;;;;5071411;28;20360;-49
2022/09/11 01:57:08;;;;;;;2.28;2.08;;;13.20;99.90;;;;;;5071406;28;20041;-51
2022/09/11 01:59:43;;;;;;;5.05;2.13;;;13.20;99.90;;;;;;5071266;28;20514;-50
2022/09/11 02:02:12;;;;;;;5.82;1.95;;;13.20;99.90;;;;;;5056939;28;20066;-49
2022/09/11 02:04:43;;;;;;;4.35;1.83;;;13.20;99.90;;;;;;5071157;28;20024;-50
2022/09/11 02:07:17;;;;;;;1.88;1.77;;;13.20;99.90;;;;;;5071194;28;20599;-50
2022/09/11 02:10:06;;;;;;;5.57;1.90;;;13.20;99.90;;;;;;5084168;28;20035;-51
2022/09/11 02:12:49;;;;;;;2.60;1.60;;;13.20;99.90;;;;;;5089740;28;20115;-50
2022/09/11 02:15:16;;;;;;;3.05;1.92;;;13.30;99.90;;;;;;5090108;28;20404;-53
2022/09/11 02:18:02;;;;;;;7.32;1.70;;;13.30;99.90;;;;;;5050928;28;20029;-50
2022/09/11 02:20:28;;;;;;;4.30;2.20;;;13.30;99.90;;;;;;5053911;28;20108;-49
2022/09/11 02:22:54;;;;;;;2.55;1.70;;;13.30;99.90;;;;;;5084100;28;20121;-49
2022/09/11 02:25:20;;;;;;;3.35;1.70;;;13.30;99.90;;;;;;5091126;28;20083;-49
2022/09/11 02:27:46;;;;;;;4.60;1.85;;;13.20;99.90;;;;;;5074385;28;20028;-51
2022/09/11 02:30:13;;;;;;;5.50;2.00;;;13.20;99.90;;;;;;5071120;28;20024;-50
2022/09/11 02:32:42;;;;;;;3.30;2.63;;;13.20;99.90;;;;;;5070909;28;20078;-49
2022/09/11 02:35:09;;;;;;;3.13;2.00;;;13.30;99.90;;;;;;5071019;28;20461;-50
2022/09/11 02:37:56;;;;;;;2.75;1.85;;;13.20;99.90;;;;;;5073128;28;20032;-52
2022/09/11 02:40:43;;;;;;;2.78;2.00;;;13.20;99.90;;;;;;5071117;28;20056;-51
2022/09/11 02:43:48;;;;;;;6.03;2.45;;;13.20;99.90;;;;;;5073874;28;20032;-50
2022/09/11 02:46:38;;;;;;;4.80;1.88;;;13.10;99.90;;;;;;5023420;28;20038;-49
2022/09/11 02:49:29;;;;;;;5.63;2.13;;;13.10;99.90;;;;;;5012317;28;20026;-50
2022/09/11 02:52:18;;;;;;;2.63;1.88;;;13.10;99.90;;;;;;5018200;28;20041;-52
2022/09/11 02:54:54;;;;;;;3.83;2.25;;;13.10;99.90;;;;;;5031648;28;20041;-49
2022/09/11 02:57:43;;;;;;;3.45;2.00;;;13.10;99.90;;;;;;5040332;28;20095;-49
2022/09/11 03:00:09;;;;;;;2.00;1.80;;;13.10;99.90;;;;;;5060298;28;20076;-49
2022/09/11 03:02:39;;;;;;;3.65;1.90;;;13.10;99.90;;;;;;5075511;28;20608;-50
2022/09/11 03:05:06;;;;;;;4.72;2.00;;;13.00;99.90;;;;;;5075499;28;20037;-49
2022/09/11 03:07:32;;;;;;;2.85;1.73;;;13.10;99.90;;;;;;5085720;28;20040;-50
2022/09/11 03:09:58;;;;;;;2.33;1.70;;;13.00;99.90;;;;;;5094371;28;20164;-52
2022/09/11 03:12:24;;;;;;;3.33;1.50;;;13.10;99.90;;;;;;5094273;28;20171;-50
2022/09/11 03:14:50;;;;;;;2.05;1.60;;;13.10;99.90;;;;;;5093289;28;20158;-49
2022/09/11 03:17:16;;;;;;;1.90;1.58;;;13.10;99.90;;;;;;5077085;28;20060;-50
2022/09/11 03:19:42;;;;;;;3.92;1.60;;;13.10;99.90;;;;;;5073982;28;20584;-49
2022/09/11 03:22:07;;;;;;;3.80;2.00;;;13.10;99.90;;;;;;5075257;28;20020;-50
2022/09/11 03:24:33;;;;;;;3.65;1.88;;;13.10;99.90;;;;;;5091207;28;20081;-50
2022/09/11 03:26:59;;;;;;;2.17;1.77;;;13.00;99.90;;;;;;5092526;28;20039;-49
2022/09/11 03:29:24;;;;;;;2.92;1.63;;;13.00;99.90;;;;;;5093844;28;20046;-51
2022/09/11 03:31:50;;;;;;;4.45;1.63;;;13.10;99.90;;;;;;5093751;28;20030;-50
2022/09/11 03:34:16;;;;;;;2.97;1.73;;;13.00;99.90;;;;;;5093890;28;20058;-51
2022/09/11 03:36:42;;;;;;;6.05;1.42;;;13.00;99.90;;;;;;5093990;28;20024;-51
2022/09/11 03:39:09;;;;;;;3.90;1.70;;;13.00;99.90;;;;;;5092455;28;20425;-50
2022/09/11 03:41:34;;;;;;;2.42;1.67;;;13.00;99.90;;;;;;5093864;28;20020;-50
2022/09/11 03:44:00;;;;;;;1.50;1.30;;;13.10;99.90;;;;;;5093660;28;20013;-50
2022/09/11 03:46:26;;;;;;;2.58;1.70;;;13.10;99.90;;;;;;5083352;28;20028;-49
2022/09/11 03:48:52;;;;;;;5.22;1.40;;;13.20;99.90;;;;;;5073671;28;20046;-51
2022/09/11 03:51:19;;;;;;;3.47;1.60;;;13.20;99.90;;;;;;5073575;28;20033;-49
2022/09/11 03:53:45;;;;;;;6.15;1.83;;;13.10;99.90;;;;;;5074246;28;20032;-50
2022/09/11 03:56:11;;;;;;;2.47;1.48;;;13.10;99.90;;;;;;5073548;28;20028;-50
2022/09/11 03:58:37;;;;;;;2.85;2.25;;;13.10;99.90;;;;;;5085142;28;20039;-51
2022/09/11 04:01:11;;;;;;;1.60;1.50;;;13.00;99.90;;;;;;5093823;28;20383;-51
2022/09/11 04:03:37;;;;;;;1.95;1.73;;;13.00;99.90;;;;;;5091696;28;20032;-50
2022/09/11 04:06:03;;;;;;;7.70;1.80;;;13.00;99.90;;;;;;5092926;28;20077;-53
2022/09/11 04:08:32;;;;;;;2.53;1.65;;;13.00;99.90;;;;;;5092796;28;20044;-50
2022/09/11 04:11:00;;;;;;;1.60;1.50;;;13.00;99.90;;;;;;5093554;28;20009;-51
2022/09/11 04:13:27;;;;;;;2.40;1.95;;;13.00;99.90;;;;;;5093040;28;20024;-50
2022/09/11 04:15:56;;;;;;;2.13;1.50;;;13.00;99.90;;;;;;5087851;28;20048;-49
2022/09/11 04:18:22;;;;;;;2.67;1.50;;;13.10;99.90;;;;;;5072995;28;20582;-51
2022/09/11 04:20:47;;;;;;;4.05;1.75;;;13.10;99.90;;;;;;5075063;28;20028;-51
2022/09/11 04:23:13;;;;;;;5.82;1.67;;;13.20;99.90;;;;;;5091429;28;20103;-50
2022/09/11 04:25:39;;;;;;;3.80;1.60;;;13.10;99.90;;;;;;5091489;28;20103;-53
2022/09/11 04:28:04;;;;;;;2.97;1.75;;;13.20;99.90;;;;;;5092320;28;20110;-52
2022/09/11 04:30:30;;;;;;;3.88;1.73;;;13.20;99.90;;;;;;5092982;28;20035;-49
2022/09/11 04:32:56;;;;;;;3.45;1.60;;;13.20;99.90;;;;;;5092743;28;20028;-51
2022/09/11 04:35:21;;;;;;;3.65;1.90;;;13.10;99.90;;;;;;5092761;28;20057;-50
2022/09/11 04:37:48;;;;;;;3.50;1.63;;;13.10;99.90;;;;;;5072591;28;20028;-49
2022/09/11 04:40:13;;;;;;;2.40;1.50;;;13.10;99.90;;;;;;5072765;28;20437;-51
2022/09/11 04:42:39;;;;;;;2.80;1.50;;;13.10;99.90;;;;;;5072392;28;20111;-50
2022/09/11 04:45:05;;;;;;;1.73;1.50;;;13.00;99.90;;;;;;5072746;28;20037;-49
2022/09/11 04:47:31;;;;;;;3.50;1.50;;;13.10;99.90;;;;;;5090449;28;20078;-49
2022/09/11 04:49:56;;;;;;;5.00;1.70;;;13.00;99.90;;;;;;5091480;28;20024;-51
2022/09/11 04:52:23;;;;;;;5.07;1.95;;;13.00;99.90;;;;;;5091123;28;20020;-49
2022/09/11 04:54:49;;;;;;;2.72;1.70;;;13.00;99.90;;;;;;5072249;28;20029;-51
2022/09/11 04:57:15;;;;;;;2.83;1.85;;;13.10;99.90;;;;;;5072276;28;20051;-48
2022/09/11 04:59:52;;;;;;;3.80;2.00;;;13.10;99.90;;;;;;5072092;28;20047;-51
2022/09/11 05:02:18;;;;;;;1.88;1.75;;;13.20;99.90;;;;;;5072195;28;20025;-51
2022/09/11 05:04:44;;;;;;;2.05;1.65;;;13.20;99.90;;;;;;5086631;28;20028;-50
2022/09/11 05:07:12;;;;;;;5.30;1.95;;;13.20;99.90;;;;;;5091763;28;20036;-49
2022/09/11 05:09:38;;;;;;;3.90;1.90;;;13.20;99.90;;;;;;5091938;28;20016;-50
2022/09/11 05:12:03;;;;;;;3.20;1.55;;;13.30;99.90;;;;;;5091993;28;20819;-50
2022/09/11 05:14:31;;;;;;;5.80;1.92;;;13.30;99.90;;;;;;5091909;28;20051;-49
2022/09/11 05:16:57;;;;;;;1.77;1.65;;;13.30;99.90;;;;;;5078161;28;20046;-52
2022/09/11 05:19:24;;;;;;;3.58;2.13;;;13.40;99.90;;;;;;5071945;28;20032;-50
2022/09/11 05:21:50;;;;;;;2.03;1.60;;;13.40;99.90;;;;;;5071869;28;20009;-51
2022/09/11 05:24:16;;;;;;;5.07;2.15;;;13.40;99.90;;;;;;5083439;28;20043;-50
2022/09/11 05:26:41;;;;;;;2.40;2.00;;;13.40;99.90;;;;;;5090179;28;20061;-51
2022/09/11 05:29:12;;;;;;;2.65;1.92;;;13.40;99.90;;;;;;5091881;28;20028;-50
2022/09/11 05:31:38;;;;;;;4.22;2.08;;;13.40;99.90;;;;;;5091847;28;20533;-50
2022/09/11 05:34:04;;;;;;;3.30;1.77;;;13.40;99.90;;;;;;5091733;28;20560;-50
2022/09/11 05:36:30;;;;;;;2.00;1.60;;;13.40;99.90;;;;;;5091804;28;20112;-50
2022/09/11 05:38:57;;;;;;;1.60;1.50;;;13.40;99.90;;;;;;5091591;28;20425;-50
2022/09/11 05:41:23;;;;;;;4.30;1.80;;;13.50;99.90;;;;;;5091639;28;20023;-52
2022/09/11 05:43:50;;;;;;;3.97;1.98;;;13.40;99.90;;;;;;5091467;28;20089;-51
2022/09/11 05:46:17;;;;;;;3.72;1.55;;;13.50;99.90;;;;;;5083506;28;20426;-50
2022/09/11 05:48:44;;;;;;;4.30;1.70;;;13.50;99.90;;;;;;5071356;28;20043;-50
2022/09/11 05:51:12;;;;;;;1.83;1.73;;;13.50;99.90;;;;;;5074953;28;20016;-50
2022/09/11 05:53:38;;;;;;;1.88;1.70;;;13.50;99.90;;;;;;5084500;28;20098;-50
2022/09/11 05:56:15;;;;;;;6.43;1.90;;;13.50;99.90;;;;;;5071373;28;20032;-51
2022/09/11 05:58:45;;;;;;;4.05;2.17;;;13.40;99.90;;;;;;5077232;28;20024;-51
2022/09/11 06:01:15;;;;;;;7.00;2.17;;;13.20;99.90;;;;;;5091600;28;20119;-50
2022/09/11 06:03:42;;;;;;;3.30;1.90;;;13.20;99.90;;;;;;5089891;28;20028;-50
2022/09/11 06:06:10;;;;;;;2.58;1.80;;;13.20;99.90;;;;;;5091614;28;20027;-50
2022/09/11 06:08:36;;;;;;;3.65;1.63;;;13.40;99.90;;;;;;5090806;28;20077;-51
2022/09/11 06:11:06;;;;;;;5.93;1.85;;;13.50;99.90;;;;;;5091257;28;20051;-50
2022/09/11 06:13:37;;;;;;;4.10;1.88;;;13.60;99.90;;;;;;5091021;28;20035;-50
2022/09/11 06:16:04;;;;;;;3.63;1.70;;;13.60;99.90;;;;;;5090134;28;20020;-48
2022/09/11 06:18:31;;;;;;;1.70;1.60;;;13.50;99.90;;;;;;5094360;28;20036;-50
2022/09/11 06:20:58;;;;;;;3.05;1.80;;;13.50;99.90;;;;;;5080083;28;20511;-49
2022/09/11 06:23:24;;;;;;;3.28;2.15;;;13.50;99.90;;;;;;5089433;28;20043;-50
2022/09/11 06:25:53;;;;;;;4.78;2.00;;;13.50;99.90;;;;;;5093508;28;20039;-50
2022/09/11 06:28:22;;;;;;;3.25;2.50;;;13.50;99.90;;;;;;5094617;28;20040;-51
2022/09/11 06:30:51;;;;;;;4.05;1.75;;;13.60;99.90;;;;;;5094944;28;20028;-51
2022/09/11 06:33:21;;;;;;;3.00;2.05;;;13.60;99.90;;;;;;5090823;28;20020;-51
2022/09/11 06:35:57;;;;;;;2.80;2.13;;;13.60;99.90;;;;;;5074843;28;20005;-49
2022/09/11 06:38:23;;;;;;;4.32;3.00;;;13.60;99.90;;;;;;5074743;28;20032;-52
2022/09/11 06:40:50;;;;;;;4.57;3.92;;;13.70;99.90;;;;;;5075111;28;20036;-49
2022/09/11 06:43:16;;;;;;;4.20;2.50;;;13.60;99.90;;;;;;5074757;28;20028;-50
2022/09/11 06:45:41;;;;;;;4.15;2.15;;;13.60;99.90;;;;;;5073187;28;20058;-49
2022/09/11 06:48:07;;;;;;;2.03;1.80;;;13.60;99.90;;;;;;5074468;28;20398;-50
2022/09/11 06:50:39;;;;;;;3.60;2.00;;;13.60;99.90;;;;;;5074267;28;20021;-51
2022/09/11 06:53:05;;;;;;;3.58;2.53;;;13.50;99.90;;;;;;5074343;28;20017;-49
2022/09/11 06:55:32;;;;;;;3.53;2.40;;;13.50;99.90;;;;;;5074179;28;20625;-50
2022/09/11 06:57:57;;;;;;;3.45;2.00;;;13.50;99.90;;;;;;5074652;28;21034;-50
2022/09/11 07:00:24;;;;;;;5.63;2.15;;;13.70;99.90;;;;;;5074627;28;20056;-50
2022/09/11 07:02:51;;;;;;;7.22;2.33;;;13.80;99.90;;;;;;5074467;28;20101;-49
2022/09/11 07:05:18;;;;;;;3.83;2.72;;;13.90;99.90;;;;;;5074347;28;20032;-51
2022/09/11 07:07:45;;;;;;;2.47;2.13;;;13.90;99.90;;;;;;5073902;28;20132;-51
2022/09/11 07:10:10;;;;;;;2.83;2.50;;;13.90;99.90;;;;;;5074395;28;20464;-49
2022/09/11 07:12:37;;;;;;;4.53;2.25;;;14.00;99.90;;;;;;5074129;28;20052;-50
2022/09/11 07:15:05;;;;;;;3.47;2.15;;;13.90;99.90;;;;;;5074297;28;20035;-51
2022/09/11 07:17:31;;;;;;;3.58;2.13;;;13.90;99.90;;;;;;5074077;28;20020;-50
2022/09/11 07:19:57;;;;;;;6.63;2.28;;;13.90;99.90;;;;;;5073846;28;20062;-49
2022/09/11 07:22:23;;;;;;;3.53;2.03;;;13.90;99.90;;;;;;5074151;28;20492;-50
2022/09/11 07:24:48;;;;;;;2.67;1.80;;;14.00;99.90;;;;;;5074058;28;20039;-55
2022/09/11 07:27:14;;;;;;;3.53;1.85;;;14.20;99.90;;;;;;5073607;28;20539;-51
2022/09/11 07:29:39;;;;;;;8.77;2.20;;;14.20;99.90;;;;;;5073469;28;20075;-50
2022/09/11 07:32:05;;;;;;;3.53;1.50;;;14.30;99.90;;;;;;5073931;28;20025;-50
2022/09/11 07:34:31;;;;;;;3.13;1.77;;;14.20;99.90;;;;;;5073756;28;20149;-49
2022/09/11 07:36:56;;;;;;;6.43;1.60;;;14.20;99.90;;;;;;5073992;28;20015;-49
2022/09/11 07:39:22;;;;;;;3.95;1.70;;;14.20;99.90;;;;;;5073610;28;20038;-51
2022/09/11 07:41:48;;;;;;;2.20;1.60;;;14.10;99.90;;;;;;5073727;28;20020;-50
2022/09/11 07:44:15;;;;;;;2.42;1.85;;;14.00;99.90;;;;;;5054315;28;20065;-52
2022/09/11 07:46:40;;;;;;;3.15;1.88;;;14.00;99.90;;;;;;5053248;28;20071;-51
2022/09/11 07:49:08;;;;;;;5.60;1.70;;;13.90;99.90;;;;;;5053468;28;20452;-50
2022/09/11 07:51:35;;;;;;;3.78;1.70;;;13.90;99.90;;;;;;5068648;28;20025;-50
2022/09/11 07:54:01;;;;;;;5.07;1.85;;;13.90;99.90;;;;;;5053640;28;20031;-50
2022/09/11 07:56:27;;;;;;;2.45;2.25;;;13.90;99.90;;;;;;5053226;28;20452;-52
2022/09/11 07:58:54;;;;;;;3.30;2.15;;;13.90;99.90;;;;;;5053212;28;20384;-49
2022/09/11 08:01:22;;;;;;;3.97;2.00;;;13.70;99.90;;;;;;5066697;28;20028;-51
2022/09/11 08:03:57;;;;;;;5.57;2.08;;;13.80;99.90;;;;;;5085160;28;20032;-50
2022/09/11 08:06:25;;;;;;;5.03;2.00;;;13.80;99.90;;;;;;5073174;28;20116;-51
2022/09/11 08:09:00;;;;;;;4.40;2.22;;;13.80;99.90;;;;;;5083668;28;20491;-50
2022/09/11 08:11:28;;;;;;;4.53;1.98;;;13.80;99.90;;;;;;5083911;28;20032;-50
2022/09/11 08:13:55;;;;;;;4.60;2.28;;;13.80;99.90;;;;;;5071862;28;20021;-51
2022/09/11 08:16:25;;;;;;;1.95;1.83;;;13.70;99.90;;;;;;5071738;28;20407;-52
2022/09/11 08:18:51;;;;;;;3.13;2.13;;;13.80;99.90;;;;;;5071978;28;20414;-50
2022/09/11 08:21:17;;;;;;;3.45;2.00;;;13.70;99.90;;;;;;5071559;28;20081;-52
2022/09/11 08:23:44;;;;;;;5.47;2.85;;;13.70;99.90;;;;;;5071416;28;20113;-49
2022/09/11 08:26:18;;;;;;;5.32;3.35;;;13.70;99.90;;;;;;5071688;28;20032;-51
2022/09/11 08:28:44;;;;;;;8.68;3.03;;;13.70;99.90;;;;;;5070103;28;20772;-51
2022/09/11 08:31:11;;;;;;;3.97;2.35;;;13.70;99.90;;;;;;5070729;28;20025;-51
2022/09/11 08:33:37;;;;;;;4.25;2.15;;;13.80;99.90;;;;;;5068443;28;20021;-50
2022/09/11 08:36:07;;;;;;;5.50;2.50;;;13.80;99.90;;;;;;5068855;28;20042;-50
2022/09/11 08:38:33;;;;;;;2.60;2.13;;;13.80;99.90;;;;;;5068350;28;20239;-51
2022/09/11 08:41:15;;;;;;;3.08;2.35;;;13.90;99.90;;;;;;5067938;28;20016;-50
2022/09/11 08:43:52;;;;;;;2.55;2.05;;;13.90;99.90;;;;;;5068630;28;20028;-50
2022/09/11 08:46:22;;;;;;;3.67;2.13;;;13.90;99.90;;;;;;5069528;28;20020;-51
2022/09/11 08:49:09;;;;;;;5.57;2.70;;;14.10;99.90;;;;;;5071162;28;20417;-48
2022/09/11 08:51:36;;;;;;;3.00;2.20;;;14.20;99.90;;;;;;5070934;28;20024;-49
2022/09/11 08:54:02;;;;;;;4.00;2.05;;;14.30;99.90;;;;;;5069616;28;20059;-50
2022/09/11 08:56:30;;;;;;;2.10;1.85;;;14.20;99.90;;;;;;5069450;28;20356;-50
2022/09/11 08:59:05;;;;;;;3.20;2.22;;;14.10;99.90;;;;;;5071020;28;20048;-49
2022/09/11 09:01:44;;;;;;;2.90;2.13;;;14.20;99.90;;;;;;5070805;28;20032;-49
2022/09/11 09:04:17;;;;;;;1.70;1.55;;;14.30;99.90;;;;;;5070927;28;20013;-48
2022/09/11 09:07:10;;;;;;;2.30;2.10;;;14.20;99.90;;;;;;5069190;28;20130;-48
2022/09/11 09:10:02;;;;;;;2.88;1.58;;;14.20;99.90;;;;;;5070850;28;20032;-50
2022/09/11 09:12:36;;;;;;;3.38;2.25;;;14.20;99.90;;;;;;5070614;28;20020;-50
2022/09/11 09:15:18;;;;;;;3.55;1.80;;;14.30;99.90;;;;;;5070605;28;20496;-51
2022/09/11 09:17:59;;;;;;;3.15;1.83;;;14.30;99.90;;;;;;5070419;28;20032;-53
2022/09/11 09:20:59;;;;;;;2.83;2.15;;;14.30;99.90;;;;;;5069159;28;20487;-50
2022/09/11 09:23:31;;;;;;;2.08;1.65;;;14.30;99.90;;;;;;5070369;28;20056;-51
2022/09/11 09:25:57;;;;;;;5.10;1.67;;;14.40;99.90;;;;;;5070472;28;20056;-50
2022/09/11 09:28:32;;;;;;;1.50;1.40;;;14.40;99.90;;;;;;5070546;28;20049;-54
2022/09/11 09:31:02;;;;;;;2.97;2.28;;;14.40;99.90;;;;;;5070534;28;20028;-50
2022/09/11 09:33:42;;;;;;;1.70;1.58;;;14.40;99.90;;;;;;5070293;28;20078;-51
2022/09/11 09:36:13;;;;;;;1.70;1.60;;;14.50;99.90;;;;;;5070502;28;20379;-49
2022/09/11 09:38:39;;;;;;;1.63;1.48;;;14.60;99.90;;;;;;5070226;28;20021;-50
2022/09/11 09:41:31;;;;;;;1.70;1.50;;;14.60;99.90;;;;;;5070319;28;20030;-49
2022/09/11 09:44:03;;;;;;;1.30;1.20;;;14.50;99.90;;;;;;5070405;28;20029;-50
2022/09/11 09:46:44;;;;;;;3.05;1.58;;;14.50;99.90;;;;;;5070025;28;20032;-50
2022/09/11 09:49:15;;;;;;;2.33;1.70;;;14.40;99.90;;;;;;5070030;28;20078;-49
2022/09/11 09:51:41;;;;;;;2.20;1.98;;;14.50;99.90;;;;;;5069936;28;20021;-51
2022/09/11 09:54:13;;;;;;;1.90;1.77;;;14.50;99.90;;;;;;5070245;28;20391;-49
2022/09/11 09:56:42;;;;;;;2.20;2.00;;;14.70;99.90;;;;;;5070093;28;20111;-52
2022/09/11 09:59:07;;;;;;;1.73;1.63;;;14.90;99.90;;;;;;5070355;28;20090;-50
2022/09/11 10:01:50;;;;;;;2.35;1.90;;;15.00;99.90;;;;;;5069990;28;20016;-51
2022/09/11 10:04:25;;;;;;;2.45;1.77;;;14.80;99.90;;;;;;5069978;28;20028;-52
2022/09/11 10:07:03;;;;;;;1.70;1.60;;;14.80;99.90;;;;;;5069870;28;20525;-51
2022/09/11 10:09:30;;;;;;;1.95;1.48;;;14.80;99.90;;;;;;5069903;28;20454;-50
2022/09/11 10:12:11;;;;;;;2.38;1.60;;;14.90;99.90;;;;;;5070093;28;20111;-50
2022/09/11 10:14:49;;;;;;;1.52;1.38;;;14.90;99.90;;;;;;5069923;28;20031;-50
2022/09/11 10:17:41;;;;;;;1.98;1.50;;;14.90;99.90;;;;;;5068904;28;20028;-50
2022/09/11 10:20:21;;;;;;;1.67;1.58;;;15.00;99.90;;;;;;5067733;28;20161;-51
2022/09/11 10:22:48;;;;;;;2.13;2.03;;;14.80;99.90;;;;;;5069884;28;20170;-50
2022/09/11 10:25:25;;;;;;;2.40;2.20;;;14.90;99.90;;;;;;5069927;28;20032;-50
2022/09/11 10:28:02;;;;;;;1.83;1.67;;;14.90;99.90;;;;;;5070129;28;20028;-51
2022/09/11 10:30:39;;;;;;;2.25;1.92;;;14.80;99.90;;;;;;5069763;28;20028;-50
2022/09/11 10:33:19;;;;;;;2.20;2.00;;;14.80;99.90;;;;;;5069876;28;20110;-51
2022/09/11 10:35:57;;;;;;;2.60;2.20;;;14.80;99.90;;;;;;5069589;28;20463;-51
2022/09/11 10:38:30;;;;;;;3.38;2.70;;;14.80;99.90;;;;;;5069649;28;20021;-50
2022/09/11 10:41:02;;;;;;;4.68;2.42;;;14.90;99.90;;;;;;5069684;28;20039;-50
2022/09/11 10:43:37;;;;;;;3.00;2.60;;;14.80;99.90;;;;;;5069711;28;20236;-51
2022/09/11 10:46:21;;;;;;;3.05;2.15;;;15.00;99.90;;;;;;5069797;28;20513;-50
2022/09/11 10:49:13;;;;;;;3.17;2.28;;;15.00;99.90;;;;;;5069446;28;20021;-50
2022/09/11 10:51:41;;;;;;;2.97;2.33;;;15.00;99.90;;;;;;5069606;28;20107;-51
2022/09/11 10:54:15;;;;;;;2.75;2.28;;;15.30;99.90;;;;;;5068339;28;20420;-51
2022/09/11 10:57:04;;;;;;;2.25;2.05;;;15.30;99.90;;;;;;5069435;28;20055;-50
2022/09/11 10:59:35;;;;;;;4.53;2.42;;;15.50;99.90;;;;;;5068280;28;20017;-51
2022/09/11 11:02:02;;;;;;;1.80;1.70;;;15.70;99.90;;;;;;5069581;28;20024;-50
2022/09/11 11:04:30;;;;;;;2.15;1.80;;;16.00;99.90;;;;;;5072248;28;20017;-50
2022/09/11 11:06:56;;;;;;;2.33;1.33;;;16.20;99.90;;;;;;5073027;28;20446;-49
2022/09/11 11:09:55;;;;;;;1.98;1.80;;;16.50;99.90;;;;;;5072868;28;20128;-51
2022/09/11 11:12:36;;;;;;;1.70;1.60;;;16.70;99.90;;;;;;5073033;28;20027;-50
2022/09/11 11:15:29;;;;;;;1.83;1.25;;;17.00;99.90;;;;;;5073047;28;20066;-50
2022/09/11 11:18:30;;;;;;;1.63;1.52;;;17.40;99.90;;;;;;5072822;28;20592;-51
2022/09/11 11:21:18;;;;;;;2.13;1.35;;;17.60;99.90;;;;;;5072854;28;20073;-50
2022/09/11 11:24:04;;;;;;;4.22;1.23;;;17.60;99.90;;;;;;5072530;28;20037;-52
2022/09/11 11:27:23;;;;;;;1.67;1.13;;;17.70;99.90;;;;;;5072613;28;20025;-50
2022/09/11 11:30:14;;;;;;;1.17;1.08;;;17.70;99.90;;;;;;5030234;28;20033;-51
2022/09/11 11:33:34;;;;;;;4.43;1.13;;;18.50;99.90;;;;;;5072591;28;20228;-51
2022/09/11 11:36:02;;;;;;;1.42;0.95;;;19.70;99.90;;;;;;5029992;28;20498;-50
2022/09/11 11:38:50;;;;;;;3.33;1.10;;;20.50;99.90;;;;;;5064508;28;20032;-51
2022/09/11 11:41:26;;;;;;;0.77;0.77;;;19.60;99.90;;;;;;5072362;28;20024;-50
2022/09/11 11:43:54;;;;;;;1.17;1.10;;;19.70;99.90;;;;;;5072604;28;20386;-50
2022/09/11 11:46:30;;;;;;;0.90;0.90;;;19.50;99.90;;;;;;5072329;28;20108;-51
2022/09/11 11:48:58;;;;;;;1.63;1.00;;;19.70;99.90;;;;;;5073372;28;20029;-51
2022/09/11 11:51:38;;;;;;;0.80;0.80;;;19.40;99.90;;;;;;5073301;28;20464;-51
2022/09/11 11:54:33;;;;;;;1.20;0.70;;;19.10;99.90;;;;;;5071688;28;20460;-52
2022/09/11 11:57:12;;;;;;;0.90;0.90;;;19.20;99.90;;;;;;5067152;28;20036;-50
2022/09/11 11:59:52;;;;;;;3.40;1.10;;;18.70;99.90;;;;;;5072768;28;20024;-50
2022/09/11 12:02:48;;;;;;;2.15;1.40;;;18.60;99.90;;;;;;5073084;28;20542;-51
2022/09/11 12:05:30;;;;;;;1.35;1.30;;;18.10;99.90;;;;;;5072522;28;20023;-51
2022/09/11 12:07:56;;;;;;;1.50;1.40;;;17.60;99.90;;;;;;5081861;28;20425;-51
2022/09/11 12:10:40;;;;;;;1.25;1.15;;;17.60;99.90;;;;;;5082382;28;20348;-54
2022/09/11 12:13:15;;;;;;;2.55;1.70;;;17.50;99.90;;;;;;5065227;28;20028;-51
2022/09/11 12:16:13;;;;;;;1.95;1.77;;;17.10;99.90;;;;;;5080962;28;20028;-50
2022/09/11 12:18:41;;;;;;;2.05;1.52;;;16.80;99.90;;;;;;5082648;28;20035;-50
2022/09/11 12:21:22;;;;;;;1.20;1.20;;;16.80;99.90;;;;;;5082724;28;20028;-50
2022/09/11 12:23:47;;;;;;;1.65;1.55;;;16.60;99.90;;;;;;5082406;28;20057;-52
2022/09/11 12:26:21;;;;;;;1.70;1.60;;;16.60;99.90;;;;;;5081948;28;20028;-51
2022/09/11 12:28:48;;;;;;;1.67;1.55;;;16.60;99.90;;;;;;5082282;28;20121;-51
2022/09/11 12:31:17;;;;;;;1.70;1.60;;;16.60;99.90;;;;;;5081773;28;20032;-50
2022/09/11 12:33:46;;;;;;;2.05;1.50;;;16.80;99.90;;;;;;5081859;28;20058;-53
2022/09/11 12:36:23;;;;;;;1.40;1.30;;;16.80;99.90;;;;;;5079580;28;20075;-54
2022/09/11 12:39:04;;;;;;;1.90;1.80;;;17.10;99.90;;;;;;5061803;28;20032;-50
2022/09/11 12:41:33;;;;;;;1.77;1.50;;;17.00;99.90;;;;;;5062192;28;20020;-52
2022/09/11 12:44:03;;;;;;;1.75;1.65;;;17.00;99.90;;;;;;5081167;28;20479;-55
2022/09/11 12:46:29;;;;;;;1.60;1.42;;;17.50;99.90;;;;;;5081464;28;20620;-50
2022/09/11 12:49:09;;;;;;;1.20;1.10;;;17.60;99.90;;;;;;5082001;28;20065;-51
2022/09/11 12:51:49;;;;;;;0.93;0.93;;;18.00;99.90;;;;;;5081902;28;20020;-50
2022/09/11 12:54:28;;;;;;;0.98;0.98;;;18.40;99.90;;;;;;5082190;28;20136;-49
2022/09/11 12:57:08;;;;;;;3.45;1.30;;;20.00;99.90;;;;;;5081955;28;20455;-50
2022/09/11 12:59:42;;;;;;;1.38;0.82;;;20.40;99.90;;;;;;5079912;28;20505;-50
2022/09/11 13:02:40;;;;;;;1.42;1.00;;;19.60;99.90;;;;;;5081530;28;20110;-50
2022/09/11 13:05:35;;;;;;;3.22;0.98;;;19.50;99.90;;;;;;5069580;28;20039;-51
2022/09/11 13:08:13;;;;;;;0.85;0.85;;;19.60;99.90;;;;;;5081079;28;20212;-53
2022/09/11 13:10:39;;;;;;;1.38;1.05;;;19.30;99.90;;;;;;5081783;28;20031;-49
2022/09/11 13:13:39;;;;;;;2.00;0.85;;;18.90;99.90;;;;;;5080599;28;20455;-50
2022/09/11 13:16:24;;;;;;;1.00;0.80;;;19.30;99.90;;;;;;5078765;28;20626;-50